createdAt,value
2022-08-06T00:00:27.021Z,14.60
2022-08-06T00:02:56.134Z,14.50
2022-08-06T00:05:27.498Z,14.50
2022-08-06T00:08:02.139Z,14.50
2022-08-06T00:10:32.195Z,14.50
2022-08-06T00:13:02.037Z,14.50
2022-08-06T00:16:06.594Z,14.60
2022-08-06T00:18:21.205Z,14.60
2022-08-06T00:20:52.435Z,14.50
2022-08-06T00:23:24.495Z,14.40
2022-08-06T00:25:55.334Z,14.40
2022-08-06T00:28:30.839Z,14.40
2022-08-06T00:31:06.353Z,14.40
2022-08-06T00:33:43.595Z,14.40
2022-08-06T00:36:24.849Z,14.40
2022-08-06T00:38:53.734Z,14.40
2022-08-06T00:41:27.129Z,14.30
2022-08-06T00:43:59.371Z,14.30
2022-08-06T00:46:31.022Z,14.30
2022-08-06T00:48:59.502Z,14.20
2022-08-06T00:51:50.934Z,14.30
2022-08-06T00:54:28.649Z,14.20
2022-08-06T00:57:07.596Z,14.30
2022-08-06T00:59:38.877Z,14.30
2022-08-06T01:02:09.985Z,14.30
2022-08-06T01:04:39.068Z,14.20
2022-08-06T01:07:10.433Z,14.30
2022-08-06T01:09:57.186Z,14.20
2022-08-06T01:12:33.500Z,14.20
2022-08-06T01:15:16.316Z,14.20
2022-08-06T01:17:59.801Z,14.10
2022-08-06T01:21:58.480Z,14.10
2022-08-06T01:24:06.502Z,14.10
2022-08-06T01:26:46.624Z,14.00
2022-08-06T01:29:27.280Z,14.00
2022-08-06T01:32:09.933Z,14.00
2022-08-06T01:34:42.121Z,14.10
2022-08-06T01:37:23.913Z,14.00
2022-08-06T01:40:02.655Z,14.00
2022-08-06T01:42:36.582Z,14.00
2022-08-06T01:45:15.684Z,13.90
2022-08-06T01:47:54.125Z,14.00
2022-08-06T01:50:30.190Z,13.90
2022-08-06T01:53:02.179Z,13.80
2022-08-06T01:55:56.059Z,13.80
2022-08-06T01:58:30.941Z,13.80
2022-08-06T02:01:05.886Z,13.80
2022-08-06T02:03:53.211Z,13.80
2022-08-06T02:06:34.690Z,13.80
2022-08-06T02:09:21.933Z,13.70
2022-08-06T02:12:03.982Z,13.70
2022-08-06T02:14:41.813Z,13.70
2022-08-06T02:17:15.972Z,13.70
2022-08-06T02:20:05.123Z,13.70
2022-08-06T02:22:42.318Z,13.70
2022-08-06T02:25:22.432Z,13.60
2022-08-06T02:28:02.745Z,13.60
2022-08-06T02:30:42.978Z,13.60
2022-08-06T02:33:17.993Z,13.60
2022-08-06T02:35:52.979Z,13.50
2022-08-06T02:38:33.004Z,13.60
2022-08-06T02:41:13.837Z,13.60
2022-08-06T02:43:53.978Z,13.50
2022-08-06T02:46:30.599Z,13.50
2022-08-06T02:49:06.640Z,13.60
2022-08-06T02:52:11.502Z,13.50
2022-08-06T02:54:46.401Z,13.50
2022-08-06T02:57:24.618Z,13.50
2022-08-06T02:59:59.690Z,13.50
2022-08-06T03:02:31.128Z,13.40
2022-08-06T03:05:04.877Z,13.40
2022-08-06T03:07:36.452Z,13.40
2022-08-06T03:10:12.533Z,13.40
2022-08-06T03:12:44.358Z,13.40
2022-08-06T03:15:39.128Z,13.40
2022-08-06T03:18:09.198Z,13.40
2022-08-06T03:20:44.002Z,13.30
2022-08-06T03:23:16.716Z,13.30
2022-08-06T03:25:47.983Z,13.30
2022-08-06T03:28:20.651Z,13.30
2022-08-06T03:30:55.577Z,13.20
2022-08-06T03:33:41.534Z,13.20
2022-08-06T03:36:17.609Z,13.20
2022-08-06T03:38:54.336Z,13.10
2022-08-06T03:41:29.190Z,13.20
2022-08-06T03:44:05.022Z,13.10
2022-08-06T03:46:38.988Z,13.10
2022-08-06T03:49:26.131Z,13.10
2022-08-06T03:52:00.762Z,13.10
2022-08-06T03:54:38.480Z,13.20
2022-08-06T03:57:29.627Z,13.20
2022-08-06T04:00:12.785Z,13.20
2022-08-06T04:02:47.885Z,13.20
2022-08-06T04:05:22.632Z,13.10
2022-08-06T04:07:57.353Z,13.10
2022-08-06T04:10:33.694Z,13.20
2022-08-06T04:13:40.519Z,13.20
2022-08-06T04:15:57.809Z,13.20
2022-08-06T04:18:30.997Z,13.20
2022-08-06T04:21:20.545Z,13.20
2022-08-06T04:23:54.902Z,13.20
2022-08-06T04:26:28.578Z,13.20
2022-08-06T04:29:02.735Z,13.20
2022-08-06T04:32:03.301Z,13.30
2022-08-06T04:34:27.082Z,13.30
2022-08-06T04:37:01.388Z,13.40
2022-08-06T04:39:49.243Z,13.50
2022-08-06T04:42:19.714Z,13.80
2022-08-06T04:44:56.194Z,14.20
2022-08-06T04:47:41.489Z,14.60
2022-08-06T04:50:11.578Z,15.00
2022-08-06T04:52:48.016Z,15.50
2022-08-06T04:55:25.317Z,15.80
2022-08-06T04:58:08.467Z,16.20
2022-08-06T05:01:00.725Z,16.60
2022-08-06T05:04:05.593Z,17.00
2022-08-06T05:06:27.818Z,17.30
2022-08-06T05:09:20.656Z,17.50
2022-08-06T05:11:59.682Z,17.60
2022-08-06T05:14:38.848Z,17.70
2022-08-06T05:17:12.805Z,17.80
2022-08-06T05:19:49.824Z,17.80
2022-08-06T05:22:42.541Z,17.70
2022-08-06T05:25:19.272Z,17.50
2022-08-06T05:28:03.394Z,17.20
2022-08-06T05:30:46.455Z,17.00
2022-08-06T05:33:26.322Z,17.00
2022-08-06T05:36:02.571Z,17.00
2022-08-06T05:38:37.104Z,17.00
2022-08-06T05:41:08.411Z,16.90
2022-08-06T05:43:58.079Z,16.80
2022-08-06T05:46:33.880Z,16.70
2022-08-06T05:49:31.422Z,16.50
2022-08-06T05:52:06.525Z,16.30
2022-08-06T05:54:42.630Z,16.20
2022-08-06T05:57:41.442Z,16.10
2022-08-06T06:00:42.459Z,16.00
2022-08-06T06:03:24.351Z,16.00
2022-08-06T06:06:06.417Z,16.00
2022-08-06T06:08:58.724Z,16.00
2022-08-06T06:11:47.200Z,16.00
2022-08-06T06:14:39.477Z,16.10
2022-08-06T06:17:48.408Z,16.20
2022-08-06T06:20:57.977Z,16.50
2022-08-06T06:23:17.689Z,16.60
2022-08-06T06:26:01.713Z,17.00
2022-08-06T06:28:39.508Z,16.90
2022-08-06T06:32:04.326Z,17.00
2022-08-06T06:34:27.848Z,17.20
2022-08-06T06:37:05.505Z,17.10
2022-08-06T06:39:40.376Z,17.20
2022-08-06T06:42:32.446Z,17.30
2022-08-06T06:46:04.853Z,17.40
2022-08-06T06:48:11.013Z,17.50
2022-08-06T06:50:48.654Z,17.60
2022-08-06T06:53:19.754Z,17.60
2022-08-06T06:56:01.506Z,17.50
2022-08-06T06:58:47.141Z,17.40
2022-08-06T07:01:28.533Z,17.50
2022-08-06T07:04:01.300Z,17.70
2022-08-06T07:06:43.935Z,17.80
2022-08-06T07:09:41.407Z,17.90
2022-08-06T07:12:20.177Z,17.90
2022-08-06T07:15:00.762Z,18.00
2022-08-06T07:17:45.196Z,18.00
2022-08-06T07:20:25.837Z,18.20
2022-08-06T07:24:03.299Z,18.40
2022-08-06T07:25:54.750Z,18.50
2022-08-06T07:28:28.772Z,18.50
2022-08-06T07:31:04.227Z,18.30
2022-08-06T07:34:00.007Z,18.20
2022-08-06T07:36:36.677Z,18.00
2022-08-06T07:39:14.457Z,17.80
2022-08-06T07:42:06.899Z,17.70
2022-08-06T07:44:54.775Z,17.50
2022-08-06T07:47:46.368Z,17.50
2022-08-06T07:50:23.426Z,17.50
2022-08-06T07:52:57.920Z,17.50
2022-08-06T07:55:37.142Z,17.60
2022-08-06T07:58:10.051Z,17.80
2022-08-06T08:00:49.053Z,18.00
2022-08-06T08:03:57.580Z,18.20
2022-08-06T08:06:27.535Z,18.30
2022-08-06T08:09:00.792Z,18.30
2022-08-06T08:11:38.469Z,18.20
2022-08-06T08:14:24.010Z,18.30
2022-08-06T08:16:54.568Z,18.30
2022-08-06T08:19:35.130Z,18.40
2022-08-06T08:22:07.690Z,18.60
2022-08-06T08:24:38.516Z,18.70
2022-08-06T08:27:12.533Z,18.70
2022-08-06T08:29:55.380Z,18.80
2022-08-06T08:32:26.532Z,18.90
2022-08-06T08:34:56.139Z,19.00
2022-08-06T08:37:32.027Z,19.20
2022-08-06T08:40:01.496Z,19.40
2022-08-06T08:42:42.015Z,19.40
2022-08-06T08:45:13.417Z,19.40
2022-08-06T08:47:53.742Z,19.30
2022-08-06T08:50:30.303Z,19.30
2022-08-06T08:53:05.349Z,19.50
2022-08-06T08:57:08.113Z,19.50
2022-08-06T08:58:37.045Z,19.60
2022-08-06T09:01:51.479Z,19.70
2022-08-06T09:04:05.608Z,19.80
2022-08-06T09:06:37.166Z,19.90
2022-08-06T09:09:07.427Z,19.80
2022-08-06T09:12:05.821Z,19.80
2022-08-06T09:14:34.201Z,19.90
2022-08-06T09:17:04.465Z,19.70
2022-08-06T09:19:37.732Z,19.80
2022-08-06T09:22:11.943Z,19.80
2022-08-06T09:24:41.543Z,20.00
2022-08-06T09:27:47.399Z,20.20
2022-08-06T09:30:18.754Z,20.30
2022-08-06T09:32:58.033Z,20.20
2022-08-06T09:35:44.374Z,20.10
2022-08-06T09:38:17.973Z,20.00
2022-08-06T09:41:08.817Z,20.00
2022-08-06T09:44:02.027Z,20.10
2022-08-06T09:46:44.226Z,20.00
2022-08-06T09:49:48.599Z,20.10
2022-08-06T09:52:17.324Z,20.30
2022-08-06T09:54:53.604Z,20.50
2022-08-06T09:57:35.831Z,20.50
2022-08-06T10:00:14.248Z,20.30
2022-08-06T10:02:51.844Z,20.20
2022-08-06T10:05:23.156Z,19.90
2022-08-06T10:08:08.123Z,19.70
2022-08-06T10:10:49.400Z,19.90
2022-08-06T10:13:24.591Z,20.20
2022-08-06T10:16:00.704Z,20.30
2022-08-06T10:18:54.868Z,20.40
2022-08-06T10:21:40.087Z,20.60
2022-08-06T10:24:13.079Z,20.80
2022-08-06T10:26:44.453Z,20.80
2022-08-06T10:29:14.977Z,20.80
2022-08-06T10:31:46.537Z,20.90
2022-08-06T10:34:30.041Z,21.00
2022-08-06T10:37:47.580Z,21.10
2022-08-06T10:40:08.543Z,21.00
2022-08-06T10:42:40.475Z,20.60
2022-08-06T10:45:14.274Z,20.30
2022-08-06T10:49:00.909Z,20.40
2022-08-06T10:50:52.865Z,20.70
2022-08-06T10:54:02.166Z,20.80
2022-08-06T10:56:18.206Z,20.80
2022-08-06T10:58:50.775Z,20.90
2022-08-06T11:01:36.642Z,21.10
2022-08-06T11:04:35.087Z,21.10
2022-08-06T11:08:09.280Z,21.00
2022-08-06T11:10:53.301Z,21.10
2022-08-06T11:13:37.414Z,21.10
2022-08-06T11:16:27.834Z,21.30
2022-08-06T11:19:07.629Z,21.10
2022-08-06T11:22:01.831Z,21.00
2022-08-06T11:24:38.118Z,21.00
2022-08-06T11:27:48.305Z,21.10
2022-08-06T11:30:26.698Z,21.20
2022-08-06T11:32:55.550Z,21.20
2022-08-06T11:35:52.015Z,21.00
2022-08-06T11:39:09.908Z,20.70
2022-08-06T11:41:58.962Z,20.80
2022-08-06T11:44:30.822Z,21.10
2022-08-06T11:47:13.610Z,21.20
2022-08-06T11:49:46.393Z,21.10
2022-08-06T11:52:45.138Z,21.00
2022-08-06T11:55:22.622Z,21.20
2022-08-06T11:58:23.353Z,21.30
2022-08-06T12:01:03.434Z,21.20
2022-08-06T12:03:52.303Z,21.00
2022-08-06T12:06:26.074Z,21.00
2022-08-06T12:09:16.104Z,21.10
2022-08-06T12:11:53.958Z,21.20
2022-08-06T12:14:49.233Z,21.10
2022-08-06T12:17:20.658Z,21.20
2022-08-06T12:20:02.435Z,21.20
2022-08-06T12:22:36.170Z,21.10
2022-08-06T12:25:11.207Z,20.80
2022-08-06T12:27:51.083Z,20.90
2022-08-06T12:30:36.694Z,21.10
2022-08-06T12:33:12.478Z,21.30
2022-08-06T12:35:52.588Z,21.30
2022-08-06T12:38:25.027Z,21.40
2022-08-06T12:40:59.812Z,21.60
2022-08-06T12:43:45.865Z,21.60
2022-08-06T12:46:19.316Z,21.70
2022-08-06T12:48:53.138Z,21.80
2022-08-06T12:51:27.712Z,21.90
2022-08-06T12:54:00.403Z,21.90
2022-08-06T12:56:33.021Z,21.90
2022-08-06T12:59:22.464Z,22.00
2022-08-06T13:02:07.974Z,21.90
2022-08-06T13:04:39.573Z,21.70
2022-08-06T13:07:14.444Z,21.60
2022-08-06T13:10:15.438Z,21.70
2022-08-06T13:14:03.385Z,21.80
2022-08-06T13:15:31.856Z,21.80
2022-08-06T13:18:33.772Z,21.90
2022-08-06T13:21:16.480Z,21.90
2022-08-06T13:23:53.241Z,21.90
2022-08-06T13:26:26.765Z,22.00
2022-08-06T13:30:35.452Z,21.90
2022-08-06T13:32:19.480Z,21.90
2022-08-06T13:34:59.047Z,21.80
2022-08-06T13:37:57.236Z,21.70
2022-08-06T13:40:47.232Z,21.80
2022-08-06T13:43:38.245Z,21.80
2022-08-06T13:46:15.260Z,21.80
2022-08-06T13:48:48.995Z,21.90
2022-08-06T13:51:28.811Z,21.90
2022-08-06T13:53:59.443Z,21.90
2022-08-06T13:56:34.183Z,21.90
2022-08-06T13:59:07.611Z,21.90
2022-08-06T14:01:45.671Z,21.90
2022-08-06T14:04:19.056Z,21.90
2022-08-06T14:06:51.056Z,22.00
2022-08-06T14:09:22.523Z,22.00
2022-08-06T14:11:55.640Z,22.00
2022-08-06T14:14:27.294Z,21.80
2022-08-06T14:16:58.661Z,21.70
2022-08-06T14:20:14.888Z,21.80
2022-08-06T14:22:17.491Z,21.60
2022-08-06T14:24:47.631Z,21.40
2022-08-06T14:27:23.958Z,21.30
2022-08-06T14:30:28.895Z,21.30
2022-08-06T14:32:50.950Z,21.30
2022-08-06T14:35:20.146Z,21.20
2022-08-06T14:37:51.982Z,21.10
2022-08-06T14:41:00.948Z,21.20
2022-08-06T14:43:56.639Z,21.00
2022-08-06T14:46:30.293Z,21.00
2022-08-06T14:49:05.515Z,20.90
2022-08-06T14:52:19.048Z,20.90
2022-08-06T14:54:32.992Z,20.90
2022-08-06T14:57:14.651Z,21.00
2022-08-06T14:59:49.189Z,21.20
2022-08-06T15:02:24.862Z,21.40
2022-08-06T15:04:54.655Z,21.40
2022-08-06T15:07:35.621Z,21.50
2022-08-06T15:10:27.629Z,21.60
2022-08-06T15:13:00.957Z,21.90
2022-08-06T15:15:37.070Z,22.00
2022-08-06T15:18:25.026Z,21.80
2022-08-06T15:21:10.097Z,21.80
2022-08-06T15:23:53.240Z,21.80
2022-08-06T15:26:46.510Z,21.80
2022-08-06T15:29:15.400Z,21.70
2022-08-06T15:31:46.048Z,21.60
2022-08-06T15:34:19.512Z,21.40
2022-08-06T15:37:01.990Z,21.50
2022-08-06T15:39:52.593Z,21.60
2022-08-06T15:42:24.519Z,21.70
2022-08-06T15:44:53.863Z,21.60
2022-08-06T15:47:27.054Z,21.40
2022-08-06T15:50:04.667Z,21.60
2022-08-06T15:52:37.397Z,21.80
2022-08-06T15:55:15.239Z,21.90
2022-08-06T15:58:05.307Z,22.00
2022-08-06T16:00:37.443Z,21.80
2022-08-06T16:03:08.358Z,21.80
2022-08-06T16:06:10.647Z,21.90
2022-08-06T16:08:34.402Z,21.90
2022-08-06T16:11:09.694Z,21.90
2022-08-06T16:13:41.034Z,21.70
2022-08-06T16:16:25.193Z,21.80
2022-08-06T16:19:03.546Z,21.80
2022-08-06T16:21:33.944Z,22.00
2022-08-06T16:24:05.731Z,22.10
2022-08-06T16:26:48.508Z,22.20
2022-08-06T16:29:22.603Z,22.10
2022-08-06T16:31:54.038Z,21.90
2022-08-06T16:34:29.859Z,22.00
2022-08-06T16:37:00.384Z,22.10
2022-08-06T16:39:36.452Z,22.00
2022-08-06T16:42:09.227Z,22.10
2022-08-06T16:50:26.666Z,21.90
2022-08-06T16:54:08.440Z,22.00
2022-08-06T16:55:48.806Z,22.20
2022-08-06T16:58:34.676Z,22.00
2022-08-06T17:02:14.779Z,21.90
2022-08-06T17:03:59.811Z,21.80
2022-08-06T17:06:31.365Z,21.50
2022-08-06T17:09:17.144Z,21.40
2022-08-06T17:11:58.272Z,21.30
2022-08-06T17:14:32.726Z,21.00
2022-08-06T17:17:05.421Z,20.80
2022-08-06T17:19:37.027Z,20.70
2022-08-06T17:22:06.793Z,20.60
2022-08-06T17:24:42.563Z,20.60
2022-08-06T17:27:16.192Z,20.40
2022-08-06T17:30:07.419Z,20.30
2022-08-06T17:32:46.216Z,20.20
2022-08-06T17:35:17.525Z,20.10
2022-08-06T17:37:51.408Z,20.10
2022-08-06T17:40:30.659Z,20.10
2022-08-06T17:43:04.775Z,20.00
2022-08-06T17:45:35.432Z,20.10
2022-08-06T17:48:07.358Z,19.90
2022-08-06T17:50:52.988Z,20.00
2022-08-06T17:53:21.814Z,19.90
2022-08-06T17:55:59.585Z,19.80
2022-08-06T17:58:38.302Z,19.70
2022-08-06T18:01:16.714Z,19.70
2022-08-06T18:03:49.920Z,19.70
2022-08-06T18:06:28.942Z,19.60
2022-08-06T18:09:35.608Z,19.60
2022-08-06T18:11:47.149Z,19.50
2022-08-06T18:14:32.670Z,19.60
2022-08-06T18:17:01.632Z,19.50
2022-08-06T18:19:33.935Z,19.30
2022-08-06T18:22:21.385Z,19.30
2022-08-06T18:24:52.881Z,19.20
2022-08-06T18:27:54.663Z,19.20
2022-08-06T18:30:36.699Z,19.20
2022-08-06T18:33:03.834Z,19.10
2022-08-06T18:35:55.898Z,19.00
2022-08-06T18:38:22.042Z,18.90
2022-08-06T18:40:58.941Z,18.90
2022-08-06T18:43:54.514Z,18.80
2022-08-06T18:46:55.974Z,18.70
2022-08-06T18:49:15.691Z,18.70
2022-08-06T18:51:47.598Z,18.50
2022-08-06T18:54:23.332Z,18.50
2022-08-06T18:56:53.310Z,18.50
2022-08-06T18:59:29.069Z,18.40
2022-08-06T19:01:59.357Z,18.30
2022-08-06T19:04:29.179Z,18.20
2022-08-06T19:07:03.101Z,18.20
2022-08-06T19:09:34.650Z,18.20
2022-08-06T19:12:13.075Z,18.20
2022-08-06T19:14:48.342Z,18.20
2022-08-06T19:17:47.817Z,18.10
2022-08-06T19:20:19.380Z,18.00
2022-08-06T19:22:53.363Z,17.90
2022-08-06T19:25:28.675Z,17.90
2022-08-06T19:28:35.575Z,17.80
2022-08-06T19:31:00.503Z,17.70
2022-08-06T19:33:28.737Z,17.70
2022-08-06T19:36:03.065Z,17.60
2022-08-06T19:38:37.092Z,17.60
2022-08-06T19:41:06.972Z,17.50
2022-08-06T19:44:27.354Z,17.50
2022-08-06T19:46:31.919Z,17.50
2022-08-06T19:49:04.412Z,17.40
2022-08-06T19:52:02.973Z,17.40
2022-08-06T19:54:25.840Z,17.40
2022-08-06T19:56:54.964Z,17.30
2022-08-06T20:00:52.845Z,17.30
2022-08-06T20:02:15.433Z,17.20
2022-08-06T20:04:44.916Z,17.20
2022-08-06T20:07:34.314Z,17.20
2022-08-06T20:10:04.982Z,17.10
2022-08-06T20:12:38.307Z,17.10
2022-08-06T20:15:11.836Z,17.10
2022-08-06T20:17:46.093Z,17.00
2022-08-06T20:20:28.891Z,17.00
2022-08-06T20:23:07.971Z,17.00
2022-08-06T20:26:09.254Z,17.00
2022-08-06T20:29:08.915Z,16.90
2022-08-06T20:31:22.785Z,16.90
2022-08-06T20:33:58.604Z,16.80
2022-08-06T20:36:30.090Z,16.70
2022-08-06T20:38:59.846Z,16.70
2022-08-06T20:42:04.410Z,16.70
2022-08-06T20:44:20.125Z,16.60
2022-08-06T20:47:45.952Z,16.50
2022-08-06T20:50:04.183Z,16.40
2022-08-06T20:52:29.490Z,16.40
2022-08-06T20:54:59.477Z,16.30
2022-08-06T20:57:37.454Z,16.40
2022-08-06T21:00:17.415Z,16.30
2022-08-06T21:02:54.591Z,16.30
2022-08-06T21:05:47.057Z,16.20
2022-08-06T21:08:26.347Z,16.20
2022-08-06T21:10:57.302Z,16.10
2022-08-06T21:13:35.065Z,16.10
2022-08-06T21:16:14.704Z,16.00
2022-08-06T21:18:55.157Z,16.00
2022-08-06T21:21:26.711Z,15.90
2022-08-06T21:24:01.047Z,15.90
2022-08-06T21:26:34.736Z,15.90
2022-08-06T21:29:41.666Z,15.90
2022-08-06T21:31:59.562Z,15.90
2022-08-06T21:34:30.855Z,15.80
2022-08-06T21:37:02.723Z,15.80
2022-08-06T21:39:56.379Z,15.70
2022-08-06T21:42:26.564Z,15.70
2022-08-06T21:44:58.636Z,15.60
2022-08-06T21:47:36.295Z,15.60
2022-08-06T21:50:25.492Z,15.60
2022-08-06T21:52:55.391Z,15.60
2022-08-06T21:56:36.668Z,15.50
2022-08-06T21:58:26.693Z,15.50
2022-08-06T22:00:56.766Z,15.40
2022-08-06T22:04:38.283Z,15.30
2022-08-06T22:06:21.979Z,15.20
2022-08-06T22:09:04.040Z,15.20
2022-08-06T22:12:40.460Z,15.20
2022-08-06T22:14:28.790Z,15.20
2022-08-06T22:17:05.916Z,15.10
2022-08-06T22:19:39.411Z,15.10
2022-08-06T22:22:11.239Z,15.10
2022-08-06T22:24:47.612Z,15.10
2022-08-06T22:27:19.718Z,15.00
2022-08-06T22:30:07.150Z,14.90
2022-08-06T22:32:36.821Z,14.80
2022-08-06T22:35:09.408Z,14.80
2022-08-06T22:38:16.387Z,14.80
2022-08-06T22:40:29.053Z,14.70
2022-08-06T22:43:05.302Z,14.60
2022-08-06T22:46:02.080Z,14.70
2022-08-06T22:48:35.703Z,14.70
2022-08-06T22:51:15.753Z,14.50
2022-08-06T22:54:28.258Z,14.60
2022-08-06T22:56:38.045Z,14.60
2022-08-06T22:59:20.572Z,14.50
2022-08-06T23:02:07.009Z,14.60
2022-08-06T23:04:46.451Z,14.60
2022-08-06T23:07:25.350Z,14.50
2022-08-06T23:09:58.730Z,14.50
2022-08-06T23:12:31.780Z,14.50
2022-08-06T23:15:20.205Z,14.50
2022-08-06T23:18:00.492Z,14.40
2022-08-06T23:20:34.617Z,14.40
2022-08-06T23:23:04.679Z,14.30
2022-08-06T23:26:00.637Z,14.30
2022-08-06T23:28:22.798Z,14.20
2022-08-06T23:30:52.257Z,14.30
2022-08-06T23:33:20.722Z,14.20
2022-08-06T23:35:50.896Z,14.20
2022-08-06T23:38:33.999Z,14.20
2022-08-06T23:41:05.163Z,14.20
2022-08-06T23:43:44.680Z,14.10
2022-08-06T23:46:19.724Z,14.10
2022-08-06T23:48:55.843Z,14.10
2022-08-06T23:51:35.990Z,14.10
2022-08-06T23:54:23.484Z,14.10
2022-08-06T23:56:57.959Z,14.00
2022-08-06T23:59:44.488Z,13.90
